Time;durP1;ratioP1;P1;durP2;ratioP2;P2;SDS_P1;SDS_P2;PMS_P1;PMS_P2;Temp;Humidity;BMP_temperature;BMP_pressure;BME280_temperature;BME280_humidity;BME280_pressure;Samples;Min_cycle;Max_cycle;Signal;HPM_P1;HPM_P2
2021/09/08 00:01:52;;;;;;;11.50;5.70;;;;;;;13.55;86.58;101531.71;110810;1205;61875;-77
2021/09/08 00:04:19;;;;;;;12.40;6.10;;;;;;;13.51;86.66;101528.09;110829;1205;70718;-79
2021/09/08 00:06:45;;;;;;;11.20;6.00;;;;;;;13.51;87.19;101525.86;111019;1206;61910;-79
2021/09/08 00:09:12;;;;;;;10.90;6.30;;;;;;;13.50;87.27;101526.11;111061;1206;62307;-79
2021/09/08 00:11:39;;;;;;;11.70;6.00;;;;;;;13.51;87.18;101516.96;110901;1206;61873;-78
2021/09/08 00:14:05;;;;;;;10.80;6.00;;;;;;;13.49;87.15;101518.27;110863;1207;75714;-79
2021/09/08 00:16:31;;;;;;;9.60;5.70;;;;;;;13.45;87.07;101517.52;110756;1206;61866;-77
2021/09/08 00:18:58;;;;;;;8.80;5.10;;;;;;;13.42;87.23;101515.73;110681;1206;61874;-78
2021/09/08 00:21:24;;;;;;;10.70;5.90;;;;;;;13.42;87.82;101511.31;110565;1206;61896;-80
2021/09/08 00:23:51;;;;;;;10.70;5.50;;;;;;;13.43;87.92;101508.60;110792;1199;61877;-77
2021/09/08 00:26:17;;;;;;;12.30;6.50;;;;;;;13.43;87.97;101511.45;110550;1207;62610;-80
2021/09/08 00:28:44;;;;;;;13.50;6.50;;;;;;;13.41;88.00;101508.71;110847;1207;62665;-77
2021/09/08 00:31:10;;;;;;;12.30;7.20;;;;;;;13.40;87.57;101509.48;110557;1207;61917;-78
2021/09/08 00:33:37;;;;;;;9.10;6.00;;;;;;;13.37;87.46;101509.55;110699;1206;61876;-79
2021/09/08 00:36:03;;;;;;;12.20;5.40;;;;;;;13.34;87.26;101510.11;110704;1207;61979;-77
2021/09/08 00:38:30;;;;;;;9.90;5.90;;;;;;;13.28;86.98;101506.02;110557;1205;63089;-80
2021/09/08 00:40:57;;;;;;;9.50;5.70;;;;;;;13.21;86.88;101507.76;110733;1207;61873;-77
2021/09/08 00:43:23;;;;;;;9.10;5.20;;;;;;;13.15;87.24;101510.24;110638;1206;61848;-77
2021/09/08 00:45:55;;;;;;;8.10;4.40;;;;;;;13.08;87.42;101505.55;110755;1202;61845;-77
2021/09/08 00:48:22;;;;;;;9.10;5.50;;;;;;;13.00;87.80;101506.06;111846;1198;61880;-78
2021/09/08 00:50:49;;;;;;;9.60;5.40;;;;;;;12.94;88.03;101507.86;111070;1201;75310;-78
2021/09/08 00:53:17;;;;;;;7.60;4.90;;;;;;;12.87;88.64;101506.63;110776;1206;72287;-80
2021/09/08 00:55:45;;;;;;;9.90;6.00;;;;;;;12.80;88.73;101508.23;110796;1206;72963;-80
2021/09/08 00:58:11;;;;;;;11.70;7.00;;;;;;;12.78;89.23;101506.59;110789;1206;62777;-80
2021/09/08 01:00:38;;;;;;;8.70;5.80;;;;;;;12.77;89.20;101510.08;110543;1199;61966;-78
2021/09/08 01:03:05;;;;;;;11.30;6.50;;;;;;;12.76;89.45;101508.42;110747;1207;75270;-80
2021/09/08 01:05:32;;;;;;;11.70;5.90;;;;;;;12.77;89.76;101509.85;110670;1206;71023;-80
2021/09/08 01:07:59;;;;;;;12.30;6.40;;;;;;;12.77;89.79;101507.69;110656;1206;72614;-79
2021/09/08 01:10:27;;;;;;;11.20;5.80;;;;;;;12.77;89.75;101509.19;110769;1206;62909;-79
2021/09/08 01:12:54;;;;;;;9.40;5.50;;;;;;;12.76;89.80;101505.92;110661;1207;61898;-77
2021/09/08 01:15:20;;;;;;;11.10;4.90;;;;;;;12.73;89.91;101505.13;110833;1207;75322;-77
2021/09/08 01:17:47;;;;;;;7.50;4.10;;;;;;;12.70;90.27;101501.94;110725;1207;72044;-79
2021/09/08 01:20:15;;;;;;;11.50;6.40;;;;;;;12.65;90.21;101498.27;110890;1206;73698;-79
2021/09/08 01:22:53;;;;;;;8.00;5.60;;;;;;;12.61;90.36;101494.17;110906;1207;61893;-79
2021/09/08 01:25:25;;;;;;;12.70;7.30;;;;;;;12.58;90.02;101492.04;111187;1206;61886;-78
2021/09/08 01:27:54;;;;;;;10.60;6.80;;;;;;;12.56;90.09;101493.68;110846;1207;78016;-78
2021/09/08 01:30:24;;;;;;;13.20;6.70;;;;;;;12.55;90.41;101492.90;110710;1206;71355;-79
2021/09/08 01:32:51;;;;;;;12.10;6.30;;;;;;;12.54;90.21;101493.21;110871;1206;72259;-79
2021/09/08 01:35:20;;;;;;;10.30;7.20;;;;;;;12.51;90.16;101489.33;110927;1206;62609;-78
2021/09/08 01:37:48;;;;;;;12.90;6.50;;;;;;;12.48;90.19;101488.94;110656;1207;61812;-78
2021/09/08 01:40:16;;;;;;;10.60;6.00;;;;;;;12.46;90.41;101486.43;110724;1203;76393;-79
2021/09/08 01:42:44;;;;;;;13.80;7.80;;;;;;;12.46;91.00;101487.13;110982;1199;70998;-79
2021/09/08 01:45:13;;;;;;;9.00;6.00;;;;;;;12.47;90.81;101485.67;110631;1206;71945;-80
2021/09/08 01:47:40;;;;;;;11.80;7.10;;;;;;;12.48;91.17;101485.23;111003;1207;61851;-78
2021/09/08 01:50:08;;;;;;;12.20;6.60;;;;;;;12.47;91.23;101487.30;110816;1203;61920;-80
2021/09/08 01:52:37;;;;;;;10.70;6.20;;;;;;;12.44;91.11;101486.84;110670;1206;76380;-78
2021/09/08 01:55:05;;;;;;;13.70;7.80;;;;;;;12.41;91.10;101485.73;110808;1206;71020;-77
2021/09/08 01:57:34;;;;;;;14.40;7.50;;;;;;;12.40;91.34;101486.54;110605;1206;72515;-78
2021/09/08 02:00:00;;;;;;;13.80;7.80;;;;;;;12.38;91.30;101485.17;110712;1207;61867;-80
2021/09/08 02:02:27;;;;;;;13.00;7.40;;;;;;;12.37;91.22;101490.50;110774;1206;61850;-80
2021/09/08 02:04:54;;;;;;;12.60;7.10;;;;;;;12.34;91.21;101488.45;110706;1203;77927;-81
2021/09/08 02:07:20;;;;;;;12.70;6.80;;;;;;;12.35;91.56;101489.08;110710;1207;61970;-80
2021/09/08 02:09:47;;;;;;;12.40;6.60;;;;;;;12.37;91.60;101491.52;110936;1198;61876;-80
2021/09/08 02:12:13;;;;;;;12.80;6.90;;;;;;;12.39;91.50;101489.20;110588;1207;61969;-79
2021/09/08 02:14:40;;;;;;;11.80;6.40;;;;;;;12.38;91.15;101482.92;110662;1207;62776;-78
2021/09/08 02:17:06;;;;;;;11.40;7.20;;;;;;;12.36;91.35;101484.35;110698;1206;61852;-79
2021/09/08 02:19:33;;;;;;;9.50;6.60;;;;;;;12.36;91.51;101480.46;110791;1206;62547;-79
2021/09/08 02:21:59;;;;;;;13.00;6.90;;;;;;;12.35;91.19;101482.71;110871;1206;61896;-80
2021/09/08 02:24:26;;;;;;;11.50;7.40;;;;;;;12.31;91.09;101485.25;110874;1206;62988;-79
2021/09/08 02:26:53;;;;;;;12.00;6.40;;;;;;;12.29;91.33;101485.18;110528;1206;61926;-79
2021/09/08 02:29:19;;;;;;;11.00;7.00;;;;;;;12.27;91.43;101482.15;111103;1205;76364;-80
2021/09/08 02:31:46;;;;;;;9.40;5.80;;;;;;;12.27;91.78;101480.23;110839;1206;61919;-78
2021/09/08 02:34:12;;;;;;;9.50;5.80;;;;;;;12.24;92.05;101478.17;110731;1205;74026;-81
2021/09/08 02:36:39;;;;;;;12.10;6.00;;;;;;;12.22;92.04;101477.88;110768;1207;61929;-79
2021/09/08 02:39:06;;;;;;;11.90;6.70;;;;;;;12.19;91.98;101475.14;110699;1206;61907;-78
2021/09/08 02:41:34;;;;;;;10.40;5.90;;;;;;;12.16;92.31;101468.92;111502;1198;76365;-79
2021/09/08 02:44:00;;;;;;;11.90;7.00;;;;;;;12.14;92.33;101465.66;110898;1206;70986;-80
2021/09/08 02:46:27;;;;;;;13.20;7.80;;;;;;;12.13;92.52;101466.92;110859;1206;72598;-79
2021/09/08 02:48:54;;;;;;;13.00;7.20;;;;;;;12.15;92.85;101465.85;110762;1207;61876;-79
2021/09/08 02:51:20;;;;;;;12.10;7.40;;;;;;;12.16;92.51;101463.31;110735;1206;61958;-80
2021/09/08 02:53:47;;;;;;;13.30;7.80;;;;;;;12.16;92.54;101459.52;110751;1207;61808;-78
2021/09/08 02:56:13;;;;;;;12.60;6.20;;;;;;;12.19;92.63;101461.54;110718;1200;61920;-78
2021/09/08 02:58:40;;;;;;;10.60;6.80;;;;;;;12.18;92.28;101459.81;110589;1206;61905;-80
2021/09/08 03:01:10;;;;;;;11.50;6.80;;;;;;;12.17;92.16;101460.88;110631;1207;61897;-80
2021/09/08 03:03:37;;;;;;;12.80;7.60;;;;;;;12.17;92.10;101456.95;110885;1208;62050;-80
2021/09/08 03:06:04;;;;;;;12.10;7.90;;;;;;;12.18;92.29;101451.77;110928;1206;74027;-79
2021/09/08 03:08:31;;;;;;;14.40;8.00;;;;;;;12.18;92.10;101453.50;110902;1207;72044;-78
2021/09/08 03:10:58;;;;;;;12.20;7.70;;;;;;;12.20;92.25;101449.90;110818;1206;72584;-79
2021/09/08 03:13:24;;;;;;;12.00;8.30;;;;;;;12.19;91.97;101451.44;110714;1207;61889;-79
2021/09/08 03:15:51;;;;;;;15.90;8.70;;;;;;;12.18;92.16;101445.52;110699;1207;61909;-79
2021/09/08 03:18:17;;;;;;;16.90;8.40;;;;;;;12.16;91.85;101446.92;110740;1206;75353;-80
2021/09/08 03:20:44;;;;;;;12.00;7.90;;;;;;;12.18;92.08;101448.94;110989;1206;61882;-77
2021/09/08 03:23:10;;;;;;;13.20;7.90;;;;;;;12.15;91.89;101444.55;110557;1207;61955;-78
2021/09/08 03:25:37;;;;;;;11.90;7.10;;;;;;;12.14;91.84;101444.35;110712;1207;61858;-78
2021/09/08 03:28:04;;;;;;;9.40;6.50;;;;;;;12.14;92.06;101447.38;110789;1207;62480;-79
2021/09/08 03:30:31;;;;;;;11.40;7.00;;;;;;;12.12;91.69;101447.91;110804;1203;76632;-77
2021/09/08 03:32:57;;;;;;;11.70;7.70;;;;;;;12.09;91.50;101440.80;110797;1207;62941;-79
2021/09/08 03:35:23;;;;;;;10.80;7.10;;;;;;;12.05;91.13;101440.34;110793;1207;61898;-78
2021/09/08 03:37:50;;;;;;;15.70;8.10;;;;;;;11.99;91.06;101439.23;110757;1207;61969;-78
2021/09/08 03:40:17;;;;;;;13.10;7.90;;;;;;;11.96;91.56;101437.92;110794;1207;61870;-79
2021/09/08 03:42:44;;;;;;;12.70;7.90;;;;;;;11.95;91.79;101436.60;110781;1205;75508;-78
2021/09/08 03:45:12;;;;;;;16.40;8.80;;;;;;;11.94;91.96;101441.16;110917;1207;69967;-78
2021/09/08 03:47:39;;;;;;;11.50;7.20;;;;;;;11.93;91.99;101438.46;110812;1207;73577;-78
2021/09/08 03:50:07;;;;;;;13.30;7.30;;;;;;;11.93;92.03;101439.41;110675;1201;62895;-79
2021/09/08 03:52:34;;;;;;;11.70;7.60;;;;;;;11.93;91.87;101434.58;110728;1198;62586;-78
2021/09/08 03:55:00;;;;;;;13.90;8.30;;;;;;;11.92;91.78;101432.88;110809;1208;61789;-80
2021/09/08 03:57:27;;;;;;;12.60;7.60;;;;;;;11.92;92.04;101430.42;110785;1207;61900;-78
2021/09/08 03:59:53;;;;;;;14.80;8.40;;;;;;;11.91;92.28;101432.61;110735;1207;62621;-78
2021/09/08 04:02:20;;;;;;;12.80;8.30;;;;;;;11.91;92.29;101431.75;110785;1200;61893;-78
2021/09/08 04:04:47;;;;;;;14.30;8.70;;;;;;;11.89;92.39;101429.52;110838;1205;62634;-78
2021/09/08 04:07:13;;;;;;;14.30;8.60;;;;;;;11.88;92.21;101434.57;110801;1206;61812;-78
2021/09/08 04:09:40;;;;;;;22.90;10.20;;;;;;;11.85;91.91;101428.69;110768;1207;61900;-78
2021/09/08 04:12:07;;;;;;;16.60;8.60;;;;;;;11.83;92.40;101426.91;110666;1207;73743;-78
2021/09/08 04:14:34;;;;;;;79.90;34.60;;;;;;;11.82;92.42;101425.08;110729;1206;61920;-79
2021/09/08 04:17:00;;;;;;;13.50;9.00;;;;;;;11.81;92.46;101424.86;110806;1205;61891;-79
2021/09/08 04:19:27;;;;;;;40.30;19.90;;;;;;;11.79;92.26;101424.17;110834;1205;61878;-79
2021/09/08 04:21:53;;;;;;;15.50;9.70;;;;;;;11.79;93.00;101418.66;110772;1205;61916;-79
2021/09/08 04:24:20;;;;;;;14.60;9.40;;;;;;;11.78;92.72;101415.46;110806;1207;61890;-79
2021/09/08 04:26:46;;;;;;;13.70;8.50;;;;;;;11.75;92.53;101416.83;110805;1205;61889;-80
2021/09/08 04:29:14;;;;;;;16.00;8.10;;;;;;;11.68;92.39;101416.33;111073;1205;61958;-74
2021/09/08 04:31:42;;;;;;;19.10;8.90;;;;;;;11.63;92.62;101415.77;110753;1204;76419;-72
2021/09/08 04:34:09;;;;;;;12.90;8.30;;;;;;;11.60;92.70;101416.98;110773;1206;70081;-71
2021/09/08 04:36:35;;;;;;;14.70;9.00;;;;;;;11.57;92.89;101417.44;110744;1206;73548;-71
2021/09/08 04:39:03;;;;;;;16.00;9.60;;;;;;;11.55;93.00;101416.86;110760;1207;61895;-71
2021/09/08 04:41:30;;;;;;;17.40;11.00;;;;;;;11.53;92.98;101419.82;110737;1207;62741;-71
2021/09/08 04:43:57;;;;;;;17.90;9.20;;;;;;;11.53;93.43;101418.65;110703;1207;75729;-71
2021/09/08 04:46:23;;;;;;;16.60;9.60;;;;;;;11.52;93.52;101416.61;110739;1207;71114;-72
2021/09/08 04:48:52;;;;;;;12.50;8.10;;;;;;;11.52;93.49;101418.89;110783;1198;72405;-72
2021/09/08 04:51:19;;;;;;;14.00;8.10;;;;;;;11.52;93.49;101420.02;110747;1206;62803;-70
2021/09/08 04:53:46;;;;;;;15.20;8.30;;;;;;;11.52;93.40;101420.91;110706;1205;61865;-71
2021/09/08 04:56:13;;;;;;;16.70;9.00;;;;;;;11.50;93.45;101419.45;110681;1203;76435;-72
2021/09/08 04:58:40;;;;;;;14.50;7.60;;;;;;;11.50;93.47;101417.19;110883;1207;72179;-71
2021/09/08 05:01:07;;;;;;;13.70;8.30;;;;;;;11.48;93.39;101417.30;110648;1207;72686;-70
2021/09/08 05:03:34;;;;;;;8.40;6.10;;;;;;;11.44;93.34;101419.07;110554;1207;61894;-71
2021/09/08 05:06:01;;;;;;;15.60;8.80;;;;;;;11.40;93.52;101418.87;110646;1203;61809;-71
2021/09/08 05:08:27;;;;;;;13.30;8.00;;;;;;;11.37;93.60;101419.73;110609;1206;61908;-70
2021/09/08 05:10:54;;;;;;;13.40;7.40;;;;;;;11.36;94.01;101423.48;110737;1207;61941;-72
2021/09/08 05:13:21;;;;;;;16.80;8.40;;;;;;;11.34;94.22;101418.81;110572;1207;61985;-71
2021/09/08 05:15:47;;;;;;;14.70;9.40;;;;;;;11.35;94.40;101419.91;110529;1207;61902;-72
2021/09/08 05:18:14;;;;;;;16.40;8.90;;;;;;;11.37;94.48;101423.88;110555;1207;61836;-71
2021/09/08 05:20:40;;;;;;;14.00;7.90;;;;;;;11.36;94.46;101414.50;110579;1208;61890;-73
2021/09/08 05:23:07;;;;;;;14.10;7.90;;;;;;;11.37;94.70;101418.13;110480;1207;62679;-72
2021/09/08 05:25:33;;;;;;;14.30;9.20;;;;;;;11.39;94.68;101414.58;110578;1206;61919;-71
2021/09/08 05:27:59;;;;;;;16.70;9.10;;;;;;;11.43;95.01;101416.98;110600;1205;61932;-70
2021/09/08 05:30:26;;;;;;;16.60;8.60;;;;;;;11.51;95.20;101416.39;110599;1207;61915;-71
2021/09/08 05:32:52;;;;;;;15.30;9.00;;;;;;;11.55;95.09;101417.66;110651;1207;61880;-72
2021/09/08 05:35:19;;;;;;;12.60;6.90;;;;;;;11.59;94.96;101419.16;110530;1206;61876;-73
2021/09/08 05:37:45;;;;;;;14.80;8.30;;;;;;;11.63;95.05;101417.51;110527;1207;61964;-71
2021/09/08 05:40:15;;;;;;;19.80;10.30;;;;;;;11.68;94.99;101416.84;110476;1208;61878;-71
2021/09/08 05:42:41;;;;;;;16.10;8.80;;;;;;;11.74;95.30;101417.80;110779;1207;61811;-73
2021/09/08 05:45:08;;;;;;;15.40;6.70;;;;;;;11.81;95.04;101419.48;110579;1205;61906;-74
2021/09/08 05:47:36;;;;;;;16.30;9.00;;;;;;;11.88;94.85;101417.95;110725;1205;70865;-72
2021/09/08 05:50:03;;;;;;;13.20;8.20;;;;;;;11.95;94.76;101418.43;110706;1206;72748;-71
2021/09/08 05:52:29;;;;;;;14.90;9.30;;;;;;;12.00;94.32;101419.92;110746;1207;62865;-72
2021/09/08 05:54:56;;;;;;;11.50;8.30;;;;;;;12.08;94.44;101419.17;110807;1205;61813;-70
2021/09/08 05:57:22;;;;;;;13.30;8.90;;;;;;;12.16;94.37;101422.98;110629;1205;61898;-72
2021/09/08 05:59:49;;;;;;;16.80;8.60;;;;;;;12.29;94.26;101421.47;110547;1207;61995;-73
2021/09/08 06:02:15;;;;;;;14.00;8.10;;;;;;;12.40;93.90;101421.52;110525;1206;61888;-73
2021/09/08 06:04:42;;;;;;;12.70;8.10;;;;;;;12.51;94.00;101418.64;110587;1207;61900;-73
2021/09/08 06:07:09;;;;;;;12.60;7.50;;;;;;;12.65;93.64;101421.06;110598;1206;61869;-72
2021/09/08 06:09:35;;;;;;;14.80;8.20;;;;;;;12.77;93.17;101422.23;110611;1203;76372;-71
2021/09/08 06:12:02;;;;;;;14.00;8.70;;;;;;;12.89;93.04;101427.08;110677;1206;61888;-73
2021/09/08 06:14:30;;;;;;;16.30;8.90;;;;;;;12.99;92.69;101425.50;110560;1205;73701;-73
2021/09/08 06:16:56;;;;;;;13.00;6.90;;;;;;;13.09;92.46;101422.70;110563;1205;62371;-73
2021/09/08 06:19:23;;;;;;;15.50;8.30;;;;;;;13.17;92.11;101419.34;110686;1203;61899;-73
2021/09/08 06:21:50;;;;;;;10.20;6.70;;;;;;;13.27;92.07;101417.09;110717;1207;75649;-71
2021/09/08 06:24:16;;;;;;;14.10;7.70;;;;;;;13.35;91.63;101418.66;110683;1205;70925;-72
2021/09/08 06:26:43;;;;;;;13.30;8.00;;;;;;;13.43;91.61;101420.92;110676;1206;61854;-73
2021/09/08 06:29:09;;;;;;;13.60;8.50;;;;;;;13.55;91.19;101420.44;110613;1205;61886;-71
2021/09/08 06:31:36;;;;;;;14.10;8.70;;;;;;;13.67;91.14;101418.23;110779;1205;61927;-72
2021/09/08 06:34:02;;;;;;;16.20;8.90;;;;;;;13.79;90.70;101419.64;110534;1206;61899;-72
2021/09/08 06:36:29;;;;;;;12.50;6.60;;;;;;;13.94;90.53;101420.39;110575;1205;61950;-71
2021/09/08 06:38:55;;;;;;;13.90;8.00;;;;;;;14.07;89.42;101419.13;110555;1205;61951;-73
2021/09/08 06:41:22;;;;;;;16.50;7.20;;;;;;;14.16;89.24;101418.34;110607;1207;61898;-73
2021/09/08 06:43:49;;;;;;;13.40;7.50;;;;;;;14.26;88.83;101416.35;110698;1205;61887;-73
2021/09/08 06:46:16;;;;;;;13.30;8.10;;;;;;;14.36;88.53;101413.02;110672;1205;76793;-73
2021/09/08 06:48:43;;;;;;;17.00;8.90;;;;;;;14.48;88.32;101411.76;110779;1206;71392;-73
2021/09/08 06:51:09;;;;;;;14.30;8.10;;;;;;;14.62;88.03;101406.92;110609;1206;73708;-74
2021/09/08 06:53:37;;;;;;;14.90;8.80;;;;;;;14.76;87.49;101407.77;110620;1198;61912;-72
2021/09/08 06:56:06;;;;;;;11.00;7.30;;;;;;;14.85;86.52;101407.77;110679;1207;61830;-71
2021/09/08 06:58:32;;;;;;;12.50;6.90;;;;;;;14.94;86.17;101410.48;110755;1205;76406;-74
2021/09/08 07:00:59;;;;;;;12.80;6.30;;;;;;;15.04;86.07;101407.19;110757;1205;70739;-73
2021/09/08 07:03:26;;;;;;;14.50;8.30;;;;;;;15.12;85.60;101405.80;110533;1205;72489;-71
2021/09/08 07:05:53;;;;;;;15.20;8.80;;;;;;;15.23;85.43;101400.75;110604;1203;61885;-73
2021/09/08 07:08:19;;;;;;;12.40;7.60;;;;;;;15.35;85.29;101398.75;110584;1199;61909;-73
2021/09/08 07:10:48;;;;;;;15.80;8.00;;;;;;;15.45;84.34;101400.51;110784;1205;75299;-73
2021/09/08 07:13:14;;;;;;;13.90;8.10;;;;;;;15.57;83.87;101396.38;110656;1206;70681;-74
2021/09/08 07:15:41;;;;;;;11.00;6.80;;;;;;;15.68;83.58;101390.03;110551;1206;61937;-73
2021/09/08 07:18:08;;;;;;;13.90;8.00;;;;;;;15.81;83.39;101388.95;110845;1205;61901;-73
2021/09/08 07:20:34;;;;;;;13.90;7.30;;;;;;;15.95;82.95;101392.59;110533;1205;62009;-74
2021/09/08 07:23:00;;;;;;;11.30;7.30;;;;;;;16.08;82.23;101391.59;110606;1206;61890;-71
2021/09/08 07:25:27;;;;;;;12.70;6.60;;;;;;;16.20;81.87;101392.21;110589;1206;61884;-71
2021/09/08 07:27:54;;;;;;;14.60;7.80;;;;;;;16.30;81.30;101388.98;110561;1206;61887;-73
2021/09/08 07:30:20;;;;;;;16.30;7.90;;;;;;;16.40;81.08;101385.67;110544;1205;61962;-71
2021/09/08 07:32:46;;;;;;;15.20;9.20;;;;;;;16.52;81.05;101382.86;110673;1205;61885;-73
2021/09/08 07:35:13;;;;;;;15.60;8.00;;;;;;;16.65;80.98;101385.81;110581;1205;61902;-71
2021/09/08 07:37:39;;;;;;;10.50;6.60;;;;;;;16.77;80.62;101384.32;110577;1207;62009;-73
2021/09/08 07:40:09;;;;;;;10.70;6.70;;;;;;;16.91;80.33;101383.45;110667;1205;61796;-71
2021/09/08 07:42:36;;;;;;;13.00;9.10;;;;;;;17.02;79.50;101383.21;110932;1205;61880;-71
2021/09/08 07:45:06;;;;;;;14.40;8.70;;;;;;;17.14;79.81;101381.30;110762;1206;61882;-72
2021/09/08 07:47:33;;;;;;;13.20;8.80;;;;;;;17.26;79.07;101370.58;110813;1206;77073;-74
2021/09/08 07:50:00;;;;;;;18.40;9.90;;;;;;;17.39;79.12;101373.45;110903;1205;70889;-74
2021/09/08 07:52:27;;;;;;;17.20;8.80;;;;;;;17.55;78.71;101378.02;110605;1205;72735;-73
2021/09/08 07:54:53;;;;;;;24.00;11.20;;;;;;;17.69;77.36;101377.17;110562;1206;62188;-74
2021/09/08 07:57:20;;;;;;;15.80;9.90;;;;;;;17.78;75.92;101375.84;110609;1206;62278;-74
2021/09/08 07:59:46;;;;;;;13.60;7.00;;;;;;;17.90;76.50;101376.21;110777;1199;61913;-73
2021/09/08 08:02:13;;;;;;;15.20;9.10;;;;;;;18.04;76.22;101377.90;110755;1206;61876;-73
2021/09/08 08:04:40;;;;;;;9.70;6.00;;;;;;;18.18;75.71;101378.63;110842;1206;71226;-72
2021/09/08 08:07:06;;;;;;;14.80;7.50;;;;;;;18.28;74.48;101375.72;110891;1198;61791;-73
2021/09/08 08:09:33;;;;;;;12.80;7.50;;;;;;;18.36;74.23;101371.41;110856;1206;61764;-71
2021/09/08 08:11:59;;;;;;;15.20;8.60;;;;;;;18.43;74.19;101372.39;110814;1206;62225;-71
2021/09/08 08:14:26;;;;;;;17.50;9.20;;;;;;;18.54;74.19;101372.52;110801;1205;62893;-73
2021/09/08 08:16:54;;;;;;;14.80;8.00;;;;;;;18.65;73.85;101368.67;110694;1206;61842;-70
2021/09/08 08:19:20;;;;;;;13.90;8.40;;;;;;;18.79;73.81;101372.55;110734;1205;63160;-71
2021/09/08 08:21:47;;;;;;;14.20;8.20;;;;;;;18.93;73.80;101375.44;110834;1205;61891;-72
2021/09/08 08:24:13;;;;;;;18.40;10.00;;;;;;;19.09;73.36;101374.16;110703;1205;62452;-72
2021/09/08 08:26:40;;;;;;;12.20;7.70;;;;;;;19.25;73.00;101370.30;110903;1206;61895;-72
2021/09/08 08:29:06;;;;;;;12.00;7.30;;;;;;;19.38;71.13;101372.70;110795;1203;61991;-73
2021/09/08 08:31:33;;;;;;;12.50;7.30;;;;;;;19.43;68.82;101370.80;110756;1206;61859;-73
2021/09/08 08:34:01;;;;;;;13.60;7.00;;;;;;;19.49;68.91;101367.79;110586;1205;61882;-73
2021/09/08 08:36:29;;;;;;;14.50;7.80;;;;;;;19.55;68.04;101371.22;110555;1205;76307;-73
2021/09/08 08:38:55;;;;;;;14.00;8.60;;;;;;;19.62;68.36;101366.66;110605;1207;69386;-70
2021/09/08 08:41:23;;;;;;;13.10;7.80;;;;;;;19.70;68.18;101366.53;110550;1206;61872;-71
2021/09/08 08:43:50;;;;;;;39.80;19.60;;;;;;;19.80;68.33;101362.27;110683;1206;61869;-73
2021/09/08 08:46:17;;;;;;;12.20;7.30;;;;;;;19.93;68.30;101363.84;110728;1205;61865;-71
2021/09/08 08:48:44;;;;;;;13.20;7.60;;;;;;;20.08;68.30;101364.48;110528;1207;75307;-73
2021/09/08 08:51:10;;;;;;;25.70;12.60;;;;;;;20.22;68.01;101363.30;110682;1201;71878;-71
2021/09/08 08:53:37;;;;;;;16.80;7.90;;;;;;;20.34;66.87;101361.11;110604;1206;61907;-71
2021/09/08 08:56:03;;;;;;;13.10;8.10;;;;;;;20.48;66.29;101361.34;110592;1206;61893;-73
2021/09/08 08:58:30;;;;;;;12.50;7.70;;;;;;;20.62;65.88;101362.31;110534;1206;61792;-72
2021/09/08 09:01:20;;;;;;;14.30;7.80;;;;;;;20.73;65.36;101360.28;110537;1205;61882;-71
2021/09/08 09:04:03;;;;;;;16.10;7.10;;;;;;;20.89;64.68;101360.22;110992;1199;70764;-73
2021/09/08 09:06:31;;;;;;;16.10;7.30;;;;;;;20.97;64.18;101357.16;110642;1198;72620;-73
2021/09/08 09:09:09;;;;;;;14.10;7.70;;;;;;;21.08;63.31;101354.64;110641;1199;62639;-73
2021/09/08 09:11:37;;;;;;;12.60;8.20;;;;;;;21.16;63.53;101351.95;110536;1206;61920;-71
2021/09/08 09:14:06;;;;;;;17.90;9.60;;;;;;;21.29;62.86;101343.55;110709;1205;74190;-73
2021/09/08 09:16:35;;;;;;;16.40;9.30;;;;;;;21.42;62.00;101340.38;110825;1205;70953;-73
2021/09/08 09:19:02;;;;;;;12.90;7.80;;;;;;;21.53;62.17;101337.80;110974;1198;72102;-71
2021/09/08 09:21:29;;;;;;;18.80;10.40;;;;;;;21.69;62.10;101333.86;110741;1206;61931;-73
2021/09/08 09:23:58;;;;;;;13.00;8.40;;;;;;;21.83;59.94;101331.87;110605;1201;61847;-73
2021/09/08 09:26:30;;;;;;;21.40;10.90;;;;;;;21.91;59.54;101329.36;110650;1205;76487;-72
2021/09/08 09:29:13;;;;;;;15.90;9.70;;;;;;;22.01;58.78;101327.91;110875;1206;70940;-73
2021/09/08 09:31:52;;;;;;;26.10;9.60;;;;;;;22.10;58.39;101325.36;110729;1206;73525;-71
2021/09/08 09:34:19;;;;;;;19.80;9.80;;;;;;;22.16;57.62;101320.56;110735;1206;61920;-72
2021/09/08 09:36:46;;;;;;;14.80;9.10;;;;;;;22.21;58.17;101322.27;110957;1206;61809;-71
2021/09/08 09:39:12;;;;;;;15.60;8.40;;;;;;;22.27;57.39;101317.39;110841;1206;76640;-72
2021/09/08 09:41:39;;;;;;;11.60;7.00;;;;;;;22.31;56.58;101318.92;110859;1205;61912;-72
2021/09/08 09:44:10;;;;;;;12.60;7.40;;;;;;;22.37;56.70;101313.48;110838;1206;61869;-71
2021/09/08 09:46:42;;;;;;;10.30;6.70;;;;;;;22.48;56.89;101313.06;110936;1208;61872;-71
2021/09/08 09:49:10;;;;;;;12.40;7.20;;;;;;;22.56;55.82;101306.08;111158;1198;61789;-73
2021/09/08 09:51:37;;;;;;;15.30;7.80;;;;;;;22.67;56.22;101309.80;110978;1199;75175;-71
2021/09/08 09:54:03;;;;;;;11.30;5.90;;;;;;;22.73;55.16;101309.46;110713;1205;71169;-71
2021/09/08 09:56:30;;;;;;;14.40;7.50;;;;;;;22.73;54.89;101306.79;110655;1205;61899;-73
2021/09/08 09:58:57;;;;;;;14.80;7.70;;;;;;;22.77;55.26;101302.50;110567;1206;61820;-72
2021/09/08 10:01:23;;;;;;;12.30;7.10;;;;;;;22.84;55.19;101296.55;110616;1206;62290;-72
2021/09/08 10:03:51;;;;;;;9.00;5.90;;;;;;;22.91;54.84;101292.14;110594;1206;75185;-71
2021/09/08 10:06:18;;;;;;;11.60;6.50;;;;;;;23.00;54.49;101291.61;110633;1205;71932;-72
2021/09/08 10:08:53;;;;;;;11.50;7.30;;;;;;;23.11;54.85;101282.13;110643;1206;72632;-72
2021/09/08 10:11:24;;;;;;;12.70;7.40;;;;;;;23.29;54.84;101280.36;110483;1206;61881;-70
2021/09/08 10:13:54;;;;;;;9.50;5.60;;;;;;;23.37;53.37;101275.33;110792;1198;61885;-73
2021/09/08 10:16:22;;;;;;;16.30;9.50;;;;;;;23.47;53.50;101269.52;110650;1206;76536;-72
2021/09/08 10:18:50;;;;;;;12.20;6.80;;;;;;;23.56;52.67;101264.07;110958;1206;70836;-73
2021/09/08 10:21:19;;;;;;;10.50;6.30;;;;;;;23.62;52.12;101263.02;110817;1206;72262;-73
2021/09/08 10:23:59;;;;;;;12.00;6.30;;;;;;;23.67;51.58;101259.90;110588;1206;61914;-73
2021/09/08 10:26:29;;;;;;;11.20;7.40;;;;;;;23.72;52.03;101255.70;110634;1205;61943;-72
2021/09/08 10:29:05;;;;;;;10.50;7.10;;;;;;;23.79;52.28;101255.65;110645;1206;76532;-73
2021/09/08 10:31:50;;;;;;;9.60;5.60;;;;;;;23.91;52.06;101250.08;110540;1206;72014;-73
2021/09/08 10:34:17;;;;;;;23.30;11.90;;;;;;;24.02;51.24;101248.55;110493;1200;73902;-73
2021/09/08 10:36:44;;;;;;;7.20;4.80;;;;;;;24.15;50.46;101243.17;110548;1206;62002;-71
2021/09/08 10:39:16;;;;;;;14.20;6.20;;;;;;;24.26;49.45;101244.44;110575;1198;61892;-72
2021/09/08 10:41:46;;;;;;;8.40;4.90;;;;;;;24.33;49.13;101240.14;110632;1205;75372;-73
2021/09/08 10:44:17;;;;;;;8.90;5.90;;;;;;;24.41;49.09;101237.36;110619;1206;70908;-74
2021/09/08 10:46:52;;;;;;;9.10;5.60;;;;;;;24.53;49.13;101236.96;110593;1206;74103;-73
2021/09/08 10:49:46;;;;;;;7.20;5.10;;;;;;;24.60;48.79;101231.52;110782;1206;63062;-72
2021/09/08 10:52:34;;;;;;;9.30;5.90;;;;;;;24.64;47.13;101224.34;110781;1206;61806;-74
2021/09/08 10:55:00;;;;;;;18.50;10.80;;;;;;;24.67;47.60;101222.13;110546;1206;75847;-75
2021/09/08 10:57:42;;;;;;;8.00;4.70;;;;;;;24.73;48.05;101215.97;110564;1205;72155;-72
2021/09/08 11:00:20;;;;;;;7.60;4.30;;;;;;;24.81;46.84;101204.75;110508;1206;73497;-71
2021/09/08 11:02:47;;;;;;;8.30;4.80;;;;;;;24.90;46.17;101210.57;110611;1206;62000;-74
2021/09/08 11:05:14;;;;;;;6.90;4.40;;;;;;;24.95;45.98;101212.73;110696;1205;62254;-73
2021/09/08 11:07:43;;;;;;;11.20;6.30;;;;;;;24.98;45.00;101205.48;110604;1205;62754;-73
2021/09/08 11:10:11;;;;;;;10.20;5.60;;;;;;;24.97;45.66;101205.98;110578;1203;71224;-73
2021/09/08 11:12:44;;;;;;;11.80;5.90;;;;;;;25.02;45.20;101199.81;111096;1200;73638;-73